sensor_id;sensor_type;location;lat;lon;timestamp;P1;durP1;ratioP1;P2;durP2;ratioP2
6037;SDS011;3047;42.600;23.470;2022-08-14T00:01:44;21.75;;;10.65;;
6037;SDS011;3047;42.600;23.470;2022-08-14T00:04:11;13.90;;;9.27;;
6037;SDS011;3047;42.600;23.470;2022-08-14T00:06:38;10.88;;;9.05;;
6037;SDS011;3047;42.600;23.470;2022-08-14T00:09:08;12.63;;;8.73;;
6037;SDS011;3047;42.600;23.470;2022-08-14T00:11:35;9.57;;;8.57;;
6037;SDS011;3047;42.600;23.470;2022-08-14T00:14:01;11.20;;;9.23;;
6037;SDS011;3047;42.600;23.470;2022-08-14T00:16:30;10.00;;;8.88;;
6037;SDS011;3047;42.600;23.470;2022-08-14T00:18:57;12.35;;;8.77;;
6037;SDS011;3047;42.600;23.470;2022-08-14T00:21:24;11.05;;;8.57;;
6037;SDS011;3047;42.600;23.470;2022-08-14T00:23:51;10.55;;;9.45;;
6037;SDS011;3047;42.600;23.470;2022-08-14T00:26:20;11.15;;;8.23;;
6037;SDS011;3047;42.600;23.470;2022-08-14T00:28:48;9.50;;;8.50;;
6037;SDS011;3047;42.600;23.470;2022-08-14T00:31:15;12.07;;;8.18;;
6037;SDS011;3047;42.600;23.470;2022-08-14T00:33:43;8.95;;;7.95;;
6037;SDS011;3047;42.600;23.470;2022-08-14T00:36:10;11.05;;;8.20;;
6037;SDS011;3047;42.600;23.470;2022-08-14T00:38:37;8.70;;;7.60;;
6037;SDS011;3047;42.600;23.470;2022-08-14T00:41:04;7.50;;;6.80;;
6037;SDS011;3047;42.600;23.470;2022-08-14T00:43:32;12.77;;;7.70;;
6037;SDS011;3047;42.600;23.470;2022-08-14T00:46:01;8.70;;;7.78;;
6037;SDS011;3047;42.600;23.470;2022-08-14T00:48:29;8.60;;;7.70;;
6037;SDS011;3047;42.600;23.470;2022-08-14T00:50:58;10.77;;;8.48;;
6037;SDS011;3047;42.600;23.470;2022-08-14T00:53:25;9.63;;;7.78;;
6037;SDS011;3047;42.600;23.470;2022-08-14T00:55:53;16.85;;;8.45;;
6037;SDS011;3047;42.600;23.470;2022-08-14T00:58:21;9.05;;;7.20;;
6037;SDS011;3047;42.600;23.470;2022-08-14T01:00:58;11.05;;;8.65;;
6037;SDS011;3047;42.600;23.470;2022-08-14T01:03:27;10.95;;;7.50;;
6037;SDS011;3047;42.600;23.470;2022-08-14T01:05:55;8.88;;;7.97;;
6037;SDS011;3047;42.600;23.470;2022-08-14T01:08:25;12.82;;;7.82;;
6037;SDS011;3047;42.600;23.470;2022-08-14T01:10:53;12.07;;;7.78;;
6037;SDS011;3047;42.600;23.470;2022-08-14T01:13:22;9.65;;;7.63;;
6037;SDS011;3047;42.600;23.470;2022-08-14T01:15:51;8.30;;;7.28;;
6037;SDS011;3047;42.600;23.470;2022-08-14T01:18:19;10.23;;;8.38;;
6037;SDS011;3047;42.600;23.470;2022-08-14T01:21:04;8.57;;;7.60;;
6037;SDS011;3047;42.600;23.470;2022-08-14T01:23:38;9.45;;;8.32;;
6037;SDS011;3047;42.600;23.470;2022-08-14T01:26:07;10.13;;;8.05;;
6037;SDS011;3047;42.600;23.470;2022-08-14T01:28:36;10.10;;;7.80;;
6037;SDS011;3047;42.600;23.470;2022-08-14T01:31:05;12.25;;;8.60;;
6037;SDS011;3047;42.600;23.470;2022-08-14T01:33:34;12.02;;;9.40;;
6037;SDS011;3047;42.600;23.470;2022-08-14T01:36:04;9.80;;;8.35;;
6037;SDS011;3047;42.600;23.470;2022-08-14T01:38:34;10.32;;;7.82;;
6037;SDS011;3047;42.600;23.470;2022-08-14T01:41:04;10.00;;;8.15;;
6037;SDS011;3047;42.600;23.470;2022-08-14T01:43:32;11.20;;;8.70;;
6037;SDS011;3047;42.600;23.470;2022-08-14T01:46:02;8.57;;;7.65;;
6037;SDS011;3047;42.600;23.470;2022-08-14T01:48:35;12.30;;;8.40;;
6037;SDS011;3047;42.600;23.470;2022-08-14T01:51:02;9.77;;;8.55;;
6037;SDS011;3047;42.600;23.470;2022-08-14T01:53:30;10.20;;;8.25;;
6037;SDS011;3047;42.600;23.470;2022-08-14T01:55:57;9.30;;;7.78;;
6037;SDS011;3047;42.600;23.470;2022-08-14T01:58:28;10.15;;;8.52;;
6037;SDS011;3047;42.600;23.470;2022-08-14T02:00:56;8.55;;;7.53;;
6037;SDS011;3047;42.600;23.470;2022-08-14T02:03:23;9.40;;;7.93;;
6037;SDS011;3047;42.600;23.470;2022-08-14T02:05:54;9.27;;;8.15;;
6037;SDS011;3047;42.600;23.470;2022-08-14T02:08:22;10.88;;;8.77;;
6037;SDS011;3047;42.600;23.470;2022-08-14T02:10:52;11.55;;;8.48;;
6037;SDS011;3047;42.600;23.470;2022-08-14T02:13:42;14.82;;;8.55;;
6037;SDS011;3047;42.600;23.470;2022-08-14T02:16:10;9.57;;;8.45;;
6037;SDS011;3047;42.600;23.470;2022-08-14T02:18:37;10.63;;;7.75;;
6037;SDS011;3047;42.600;23.470;2022-08-14T02:21:05;10.82;;;8.88;;
6037;SDS011;3047;42.600;23.470;2022-08-14T02:23:31;9.88;;;7.35;;
6037;SDS011;3047;42.600;23.470;2022-08-14T02:25:59;8.93;;;7.97;;
6037;SDS011;3047;42.600;23.470;2022-08-14T02:28:29;11.18;;;8.73;;
6037;SDS011;3047;42.600;23.470;2022-08-14T02:30:57;13.93;;;8.85;;
6037;SDS011;3047;42.600;23.470;2022-08-14T02:33:25;10.30;;;8.52;;
6037;SDS011;3047;42.600;23.470;2022-08-14T02:35:53;10.15;;;8.95;;
6037;SDS011;3047;42.600;23.470;2022-08-14T02:38:20;10.07;;;8.70;;
6037;SDS011;3047;42.600;23.470;2022-08-14T02:40:47;9.75;;;8.27;;
6037;SDS011;3047;42.600;23.470;2022-08-14T02:43:14;9.40;;;8.20;;
6037;SDS011;3047;42.600;23.470;2022-08-14T02:45:41;10.02;;;8.52;;
6037;SDS011;3047;42.600;23.470;2022-08-14T02:48:11;10.88;;;9.27;;
6037;SDS011;3047;42.600;23.470;2022-08-14T02:50:39;10.50;;;8.45;;
6037;SDS011;3047;42.600;23.470;2022-08-14T02:53:06;12.07;;;8.75;;
6037;SDS011;3047;42.600;23.470;2022-08-14T02:55:33;10.02;;;8.40;;
6037;SDS011;3047;42.600;23.470;2022-08-14T02:57:59;14.18;;;9.55;;
6037;SDS011;3047;42.600;23.470;2022-08-14T03:00:30;10.15;;;8.43;;
6037;SDS011;3047;42.600;23.470;2022-08-14T03:02:59;10.45;;;7.53;;
6037;SDS011;3047;42.600;23.470;2022-08-14T03:05:28;10.45;;;8.57;;
6037;SDS011;3047;42.600;23.470;2022-08-14T03:08:02;10.27;;;8.90;;
6037;SDS011;3047;42.600;23.470;2022-08-14T03:10:30;11.48;;;9.35;;
6037;SDS011;3047;42.600;23.470;2022-08-14T03:12:57;9.27;;;8.30;;
6037;SDS011;3047;42.600;23.470;2022-08-14T03:15:24;13.50;;;9.63;;
6037;SDS011;3047;42.600;23.470;2022-08-14T03:17:51;9.38;;;8.38;;
6037;SDS011;3047;42.600;23.470;2022-08-14T03:20:18;11.60;;;8.18;;
6037;SDS011;3047;42.600;23.470;2022-08-14T03:22:46;9.45;;;8.45;;
6037;SDS011;3047;42.600;23.470;2022-08-14T03:25:13;9.00;;;8.07;;
6037;SDS011;3047;42.600;23.470;2022-08-14T03:27:40;11.27;;;8.45;;
6037;SDS011;3047;42.600;23.470;2022-08-14T03:30:07;9.80;;;8.32;;
6037;SDS011;3047;42.600;23.470;2022-08-14T03:32:35;8.65;;;7.80;;
6037;SDS011;3047;42.600;23.470;2022-08-14T03:35:03;9.05;;;8.07;;
6037;SDS011;3047;42.600;23.470;2022-08-14T03:37:30;9.30;;;8.05;;
6037;SDS011;3047;42.600;23.470;2022-08-14T03:39:58;10.60;;;8.65;;
6037;SDS011;3047;42.600;23.470;2022-08-14T03:42:25;10.07;;;8.27;;
6037;SDS011;3047;42.600;23.470;2022-08-14T03:44:52;9.18;;;7.45;;
6037;SDS011;3047;42.600;23.470;2022-08-14T03:47:19;10.82;;;8.95;;
6037;SDS011;3047;42.600;23.470;2022-08-14T03:49:45;10.10;;;8.35;;
6037;SDS011;3047;42.600;23.470;2022-08-14T03:52:12;9.80;;;7.80;;
6037;SDS011;3047;42.600;23.470;2022-08-14T03:54:39;10.25;;;7.95;;
6037;SDS011;3047;42.600;23.470;2022-08-14T03:57:07;9.63;;;8.68;;
6037;SDS011;3047;42.600;23.470;2022-08-14T03:59:34;9.23;;;7.68;;
6037;SDS011;3047;42.600;23.470;2022-08-14T04:02:01;8.98;;;8.05;;
6037;SDS011;3047;42.600;23.470;2022-08-14T04:04:29;12.75;;;8.88;;
6037;SDS011;3047;42.600;23.470;2022-08-14T04:06:56;10.05;;;8.40;;
6037;SDS011;3047;42.600;23.470;2022-08-14T04:09:24;9.32;;;8.32;;
6037;SDS011;3047;42.600;23.470;2022-08-14T04:11:51;10.23;;;9.13;;
6037;SDS011;3047;42.600;23.470;2022-08-14T04:14:19;11.32;;;10.13;;
6037;SDS011;3047;42.600;23.470;2022-08-14T04:16:46;16.02;;;12.20;;
6037;SDS011;3047;42.600;23.470;2022-08-14T04:19:13;18.98;;;13.80;;
6037;SDS011;3047;42.600;23.470;2022-08-14T04:21:42;24.13;;;16.02;;
6037;SDS011;3047;42.600;23.470;2022-08-14T04:24:09;21.42;;;16.98;;
6037;SDS011;3047;42.600;23.470;2022-08-14T04:26:38;24.20;;;16.80;;
6037;SDS011;3047;42.600;23.470;2022-08-14T04:29:05;20.50;;;15.65;;
6037;SDS011;3047;42.600;23.470;2022-08-14T04:31:35;23.17;;;17.98;;
6037;SDS011;3047;42.600;23.470;2022-08-14T04:34:03;26.02;;;18.27;;
6037;SDS011;3047;42.600;23.470;2022-08-14T04:36:30;30.85;;;20.30;;
6037;SDS011;3047;42.600;23.470;2022-08-14T04:39:17;32.55;;;21.55;;
6037;SDS011;3047;42.600;23.470;2022-08-14T04:42:01;29.77;;;21.30;;
6037;SDS011;3047;42.600;23.470;2022-08-14T04:44:45;30.60;;;21.77;;
6037;SDS011;3047;42.600;23.470;2022-08-14T04:47:13;29.95;;;20.35;;
6037;SDS011;3047;42.600;23.470;2022-08-14T04:50:00;29.08;;;19.85;;
6037;SDS011;3047;42.600;23.470;2022-08-14T04:52:27;27.15;;;19.02;;
6037;SDS011;3047;42.600;23.470;2022-08-14T04:54:55;26.90;;;19.25;;
6037;SDS011;3047;42.600;23.470;2022-08-14T04:57:22;29.92;;;19.92;;
6037;SDS011;3047;42.600;23.470;2022-08-14T04:59:50;30.90;;;20.88;;
6037;SDS011;3047;42.600;23.470;2022-08-14T05:02:19;31.58;;;21.60;;
6037;SDS011;3047;42.600;23.470;2022-08-14T05:04:48;28.65;;;19.95;;
6037;SDS011;3047;42.600;23.470;2022-08-14T05:07:15;28.75;;;20.92;;
6037;SDS011;3047;42.600;23.470;2022-08-14T05:09:42;30.73;;;21.58;;
6037;SDS011;3047;42.600;23.470;2022-08-14T05:12:09;30.95;;;21.35;;
6037;SDS011;3047;42.600;23.470;2022-08-14T05:14:37;31.40;;;21.85;;
6037;SDS011;3047;42.600;23.470;2022-08-14T05:17:04;29.63;;;19.75;;
6037;SDS011;3047;42.600;23.470;2022-08-14T05:19:32;26.58;;;19.45;;
6037;SDS011;3047;42.600;23.470;2022-08-14T05:21:59;24.75;;;18.98;;
6037;SDS011;3047;42.600;23.470;2022-08-14T05:24:26;22.83;;;17.25;;
6037;SDS011;3047;42.600;23.470;2022-08-14T05:26:53;15.35;;;13.30;;
6037;SDS011;3047;42.600;23.470;2022-08-14T05:29:20;14.98;;;12.77;;
6037;SDS011;3047;42.600;23.470;2022-08-14T05:31:47;15.35;;;12.55;;
6037;SDS011;3047;42.600;23.470;2022-08-14T05:34:14;15.45;;;13.52;;
6037;SDS011;3047;42.600;23.470;2022-08-14T05:36:42;15.25;;;12.80;;
6037;SDS011;3047;42.600;23.470;2022-08-14T05:39:09;14.55;;;12.93;;
6037;SDS011;3047;42.600;23.470;2022-08-14T05:41:36;15.18;;;11.98;;
6037;SDS011;3047;42.600;23.470;2022-08-14T05:44:03;15.52;;;12.30;;
6037;SDS011;3047;42.600;23.470;2022-08-14T05:46:29;13.65;;;11.70;;
6037;SDS011;3047;42.600;23.470;2022-08-14T05:48:57;14.75;;;12.32;;
6037;SDS011;3047;42.600;23.470;2022-08-14T05:51:24;17.17;;;12.05;;
6037;SDS011;3047;42.600;23.470;2022-08-14T05:53:53;12.48;;;11.18;;
6037;SDS011;3047;42.600;23.470;2022-08-14T05:56:21;12.07;;;10.38;;
6037;SDS011;3047;42.600;23.470;2022-08-14T05:58:49;11.82;;;10.63;;
6037;SDS011;3047;42.600;23.470;2022-08-14T06:01:16;15.82;;;12.50;;
6037;SDS011;3047;42.600;23.470;2022-08-14T06:03:43;15.50;;;12.40;;
6037;SDS011;3047;42.600;23.470;2022-08-14T06:06:10;21.77;;;15.43;;
6037;SDS011;3047;42.600;23.470;2022-08-14T06:08:37;23.08;;;17.52;;
6037;SDS011;3047;42.600;23.470;2022-08-14T06:11:06;23.00;;;17.08;;
6037;SDS011;3047;42.600;23.470;2022-08-14T06:13:34;25.58;;;18.98;;
6037;SDS011;3047;42.600;23.470;2022-08-14T06:16:03;27.33;;;18.55;;
6037;SDS011;3047;42.600;23.470;2022-08-14T06:18:30;25.70;;;17.77;;
6037;SDS011;3047;42.600;23.470;2022-08-14T06:20:57;27.75;;;21.17;;
6037;SDS011;3047;42.600;23.470;2022-08-14T06:23:24;30.77;;;20.35;;
6037;SDS011;3047;42.600;23.470;2022-08-14T06:25:50;26.73;;;18.70;;
6037;SDS011;3047;42.600;23.470;2022-08-14T06:28:20;28.48;;;19.02;;
6037;SDS011;3047;42.600;23.470;2022-08-14T06:30:49;27.67;;;19.63;;
6037;SDS011;3047;42.600;23.470;2022-08-14T06:33:17;30.77;;;19.30;;
6037;SDS011;3047;42.600;23.470;2022-08-14T06:35:45;29.33;;;19.83;;
6037;SDS011;3047;42.600;23.470;2022-08-14T06:38:14;24.85;;;18.50;;
6037;SDS011;3047;42.600;23.470;2022-08-14T06:40:42;29.60;;;17.73;;
6037;SDS011;3047;42.600;23.470;2022-08-14T06:43:10;24.55;;;18.23;;
6037;SDS011;3047;42.600;23.470;2022-08-14T06:45:39;28.65;;;19.30;;
6037;SDS011;3047;42.600;23.470;2022-08-14T06:48:11;25.38;;;17.58;;
6037;SDS011;3047;42.600;23.470;2022-08-14T06:50:40;27.20;;;18.70;;
6037;SDS011;3047;42.600;23.470;2022-08-14T06:53:07;25.42;;;17.88;;
6037;SDS011;3047;42.600;23.470;2022-08-14T06:55:35;26.00;;;18.42;;
6037;SDS011;3047;42.600;23.470;2022-08-14T06:58:02;28.83;;;19.73;;
6037;SDS011;3047;42.600;23.470;2022-08-14T07:00:29;25.92;;;19.35;;
6037;SDS011;3047;42.600;23.470;2022-08-14T07:02:58;25.15;;;18.17;;
6037;SDS011;3047;42.600;23.470;2022-08-14T07:05:42;24.85;;;18.60;;
6037;SDS011;3047;42.600;23.470;2022-08-14T07:08:13;28.65;;;19.73;;
6037;SDS011;3047;42.600;23.470;2022-08-14T07:10:41;22.52;;;17.63;;
6037;SDS011;3047;42.600;23.470;2022-08-14T07:13:09;26.85;;;19.23;;
6037;SDS011;3047;42.600;23.470;2022-08-14T07:15:36;29.00;;;20.55;;
6037;SDS011;3047;42.600;23.470;2022-08-14T07:18:05;25.67;;;19.67;;
6037;SDS011;3047;42.600;23.470;2022-08-14T07:20:33;35.22;;;21.90;;
6037;SDS011;3047;42.600;23.470;2022-08-14T07:23:00;30.67;;;20.92;;
6037;SDS011;3047;42.600;23.470;2022-08-14T07:25:28;29.45;;;19.75;;
6037;SDS011;3047;42.600;23.470;2022-08-14T07:27:55;26.65;;;18.95;;
6037;SDS011;3047;42.600;23.470;2022-08-14T07:30:22;30.33;;;20.52;;
6037;SDS011;3047;42.600;23.470;2022-08-14T07:32:49;28.73;;;19.80;;
6037;SDS011;3047;42.600;23.470;2022-08-14T07:35:17;26.85;;;18.88;;
6037;SDS011;3047;42.600;23.470;2022-08-14T07:37:46;23.50;;;16.35;;
6037;SDS011;3047;42.600;23.470;2022-08-14T07:40:14;24.77;;;17.35;;
6037;SDS011;3047;42.600;23.470;2022-08-14T07:42:41;28.45;;;19.38;;
6037;SDS011;3047;42.600;23.470;2022-08-14T07:45:08;36.17;;;22.40;;
6037;SDS011;3047;42.600;23.470;2022-08-14T07:47:38;34.05;;;22.13;;
6037;SDS011;3047;42.600;23.470;2022-08-14T07:50:07;28.85;;;19.60;;
6037;SDS011;3047;42.600;23.470;2022-08-14T07:52:39;33.05;;;20.30;;
6037;SDS011;3047;42.600;23.470;2022-08-14T07:55:07;34.65;;;20.27;;
6037;SDS011;3047;42.600;23.470;2022-08-14T07:57:34;23.00;;;16.88;;
6037;SDS011;3047;42.600;23.470;2022-08-14T08:00:04;20.73;;;16.33;;
6037;SDS011;3047;42.600;23.470;2022-08-14T08:02:34;20.80;;;16.30;;
6037;SDS011;3047;42.600;23.470;2022-08-14T08:05:05;20.65;;;15.27;;
6037;SDS011;3047;42.600;23.470;2022-08-14T08:07:33;22.25;;;15.82;;
6037;SDS011;3047;42.600;23.470;2022-08-14T08:10:03;18.20;;;14.85;;
6037;SDS011;3047;42.600;23.470;2022-08-14T08:12:52;18.45;;;14.50;;
6037;SDS011;3047;42.600;23.470;2022-08-14T08:15:20;20.80;;;15.40;;
6037;SDS011;3047;42.600;23.470;2022-08-14T08:17:47;21.13;;;15.07;;
6037;SDS011;3047;42.600;23.470;2022-08-14T08:20:15;26.70;;;14.98;;
6037;SDS011;3047;42.600;23.470;2022-08-14T08:22:43;17.52;;;14.20;;
6037;SDS011;3047;42.600;23.470;2022-08-14T08:25:11;21.92;;;14.80;;
6037;SDS011;3047;42.600;23.470;2022-08-14T08:27:38;17.60;;;13.30;;
6037;SDS011;3047;42.600;23.470;2022-08-14T08:30:06;18.23;;;14.40;;
6037;SDS011;3047;42.600;23.470;2022-08-14T08:32:38;22.05;;;13.88;;
6037;SDS011;3047;42.600;23.470;2022-08-14T08:35:08;20.25;;;15.10;;
6037;SDS011;3047;42.600;23.470;2022-08-14T08:37:36;21.23;;;14.95;;
6037;SDS011;3047;42.600;23.470;2022-08-14T08:40:04;19.80;;;14.20;;
6037;SDS011;3047;42.600;23.470;2022-08-14T08:42:33;20.05;;;14.88;;
6037;SDS011;3047;42.600;23.470;2022-08-14T08:44:59;17.25;;;13.57;;
6037;SDS011;3047;42.600;23.470;2022-08-14T08:47:36;18.40;;;13.30;;
6037;SDS011;3047;42.600;23.470;2022-08-14T08:50:13;18.15;;;12.88;;
6037;SDS011;3047;42.600;23.470;2022-08-14T08:52:48;19.70;;;14.18;;
6037;SDS011;3047;42.600;23.470;2022-08-14T08:55:15;15.52;;;12.52;;
6037;SDS011;3047;42.600;23.470;2022-08-14T08:57:53;19.25;;;14.98;;
6037;SDS011;3047;42.600;23.470;2022-08-14T09:00:21;23.23;;;14.70;;
6037;SDS011;3047;42.600;23.470;2022-08-14T09:02:52;20.13;;;14.20;;
6037;SDS011;3047;42.600;23.470;2022-08-14T09:05:21;13.98;;;12.10;;
6037;SDS011;3047;42.600;23.470;2022-08-14T09:07:48;12.52;;;11.18;;
6037;SDS011;3047;42.600;23.470;2022-08-14T09:10:15;13.77;;;11.20;;
6037;SDS011;3047;42.600;23.470;2022-08-14T09:12:43;13.75;;;11.35;;
6037;SDS011;3047;42.600;23.470;2022-08-14T09:15:13;16.52;;;12.75;;
6037;SDS011;3047;42.600;23.470;2022-08-14T09:17:40;14.98;;;12.15;;
6037;SDS011;3047;42.600;23.470;2022-08-14T09:20:07;14.43;;;11.98;;
6037;SDS011;3047;42.600;23.470;2022-08-14T09:22:34;13.00;;;10.80;;
6037;SDS011;3047;42.600;23.470;2022-08-14T09:25:02;13.07;;;11.18;;
6037;SDS011;3047;42.600;23.470;2022-08-14T09:27:30;15.98;;;11.57;;
6037;SDS011;3047;42.600;23.470;2022-08-14T09:29:57;12.73;;;11.43;;
6037;SDS011;3047;42.600;23.470;2022-08-14T09:32:26;13.88;;;11.23;;
6037;SDS011;3047;42.600;23.470;2022-08-14T09:35:02;12.85;;;10.55;;
6037;SDS011;3047;42.600;23.470;2022-08-14T09:37:40;12.40;;;11.13;;
6037;SDS011;3047;42.600;23.470;2022-08-14T09:40:18;14.55;;;11.45;;
6037;SDS011;3047;42.600;23.470;2022-08-14T09:42:56;15.43;;;12.18;;
6037;SDS011;3047;42.600;23.470;2022-08-14T09:45:32;11.48;;;10.27;;
6037;SDS011;3047;42.600;23.470;2022-08-14T09:48:13;14.77;;;11.40;;
6037;SDS011;3047;42.600;23.470;2022-08-14T09:50:45;10.68;;;9.57;;
6037;SDS011;3047;42.600;23.470;2022-08-14T09:53:14;11.18;;;10.00;;
6037;SDS011;3047;42.600;23.470;2022-08-14T09:55:43;11.43;;;9.77;;
6037;SDS011;3047;42.600;23.470;2022-08-14T09:58:11;10.38;;;9.32;;
6037;SDS011;3047;42.600;23.470;2022-08-14T10:00:43;11.50;;;9.25;;
6037;SDS011;3047;42.600;23.470;2022-08-14T10:03:22;10.65;;;9.55;;
6037;SDS011;3047;42.600;23.470;2022-08-14T10:06:02;10.57;;;9.55;;
6037;SDS011;3047;42.600;23.470;2022-08-14T10:08:38;10.20;;;8.65;;
6037;SDS011;3047;42.600;23.470;2022-08-14T10:11:11;10.60;;;9.50;;
6037;SDS011;3047;42.600;23.470;2022-08-14T10:13:41;10.75;;;9.15;;
6037;SDS011;3047;42.600;23.470;2022-08-14T10:16:09;9.68;;;8.77;;
6037;SDS011;3047;42.600;23.470;2022-08-14T10:18:37;9.95;;;8.95;;
6037;SDS011;3047;42.600;23.470;2022-08-14T10:21:06;10.60;;;9.25;;
6037;SDS011;3047;42.600;23.470;2022-08-14T10:23:38;8.80;;;8.00;;
6037;SDS011;3047;42.600;23.470;2022-08-14T10:26:07;10.70;;;9.70;;
6037;SDS011;3047;42.600;23.470;2022-08-14T10:28:38;11.15;;;9.15;;
6037;SDS011;3047;42.600;23.470;2022-08-14T10:31:15;9.32;;;8.43;;
6037;SDS011;3047;42.600;23.470;2022-08-14T10:33:45;9.25;;;8.38;;
6037;SDS011;3047;42.600;23.470;2022-08-14T10:36:25;8.30;;;7.50;;
6037;SDS011;3047;42.600;23.470;2022-08-14T10:38:55;6.45;;;5.90;;
6037;SDS011;3047;42.600;23.470;2022-08-14T10:41:32;7.28;;;6.65;;
6037;SDS011;3047;42.600;23.470;2022-08-14T10:44:05;10.93;;;6.88;;
6037;SDS011;3047;42.600;23.470;2022-08-14T10:46:41;8.30;;;7.40;;
6037;SDS011;3047;42.600;23.470;2022-08-14T10:49:18;9.77;;;7.15;;
6037;SDS011;3047;42.600;23.470;2022-08-14T10:51:58;8.90;;;7.22;;
6037;SDS011;3047;42.600;23.470;2022-08-14T10:54:31;7.25;;;6.55;;
6037;SDS011;3047;42.600;23.470;2022-08-14T10:57:13;6.55;;;5.68;;
6037;SDS011;3047;42.600;23.470;2022-08-14T10:59:43;6.00;;;5.50;;
6037;SDS011;3047;42.600;23.470;2022-08-14T11:02:24;6.45;;;5.85;;
6037;SDS011;3047;42.600;23.470;2022-08-14T11:05:03;7.20;;;5.75;;
6037;SDS011;3047;42.600;23.470;2022-08-14T11:07:32;6.30;;;5.70;;
6037;SDS011;3047;42.600;23.470;2022-08-14T11:10:03;5.90;;;5.50;;
6037;SDS011;3047;42.600;23.470;2022-08-14T11:12:40;6.18;;;5.68;;
6037;SDS011;3047;42.600;23.470;2022-08-14T11:15:12;6.88;;;6.28;;
6037;SDS011;3047;42.600;23.470;2022-08-14T11:17:40;6.40;;;5.80;;
6037;SDS011;3047;42.600;23.470;2022-08-14T11:20:10;6.28;;;5.78;;
6037;SDS011;3047;42.600;23.470;2022-08-14T11:22:38;6.90;;;6.30;;
6037;SDS011;3047;42.600;23.470;2022-08-14T11:25:07;6.47;;;5.88;;
6037;SDS011;3047;42.600;23.470;2022-08-14T11:27:37;7.03;;;6.32;;
6037;SDS011;3047;42.600;23.470;2022-08-14T11:30:06;7.22;;;6.53;;
6037;SDS011;3047;42.600;23.470;2022-08-14T11:32:34;7.03;;;6.43;;
6037;SDS011;3047;42.600;23.470;2022-08-14T11:35:03;6.28;;;5.78;;
6037;SDS011;3047;42.600;23.470;2022-08-14T11:37:32;7.22;;;6.43;;
6037;SDS011;3047;42.600;23.470;2022-08-14T11:39:59;7.20;;;6.60;;
6037;SDS011;3047;42.600;23.470;2022-08-14T11:42:27;8.48;;;6.20;;
6037;SDS011;3047;42.600;23.470;2022-08-14T11:44:55;11.68;;;7.18;;
6037;SDS011;3047;42.600;23.470;2022-08-14T11:47:31;7.13;;;6.47;;
6037;SDS011;3047;42.600;23.470;2022-08-14T11:49:58;9.73;;;6.45;;
6037;SDS011;3047;42.600;23.470;2022-08-14T11:52:33;7.78;;;7.05;;
6037;SDS011;3047;42.600;23.470;2022-08-14T11:55:01;7.20;;;6.45;;
6037;SDS011;3047;42.600;23.470;2022-08-14T11:57:35;7.32;;;6.68;;
6037;SDS011;3047;42.600;23.470;2022-08-14T12:00:03;7.32;;;6.60;;
6037;SDS011;3047;42.600;23.470;2022-08-14T12:02:33;7.95;;;7.25;;
6037;SDS011;3047;42.600;23.470;2022-08-14T12:04:59;6.88;;;6.28;;
6037;SDS011;3047;42.600;23.470;2022-08-14T12:07:27;9.80;;;6.68;;
6037;SDS011;3047;42.600;23.470;2022-08-14T12:09:55;6.68;;;6.07;;
6037;SDS011;3047;42.600;23.470;2022-08-14T12:12:24;6.30;;;5.75;;
6037;SDS011;3047;42.600;23.470;2022-08-14T12:14:53;6.47;;;5.97;;
6037;SDS011;3047;42.600;23.470;2022-08-14T12:17:21;7.13;;;5.93;;
6037;SDS011;3047;42.600;23.470;2022-08-14T12:19:50;6.32;;;5.82;;
6037;SDS011;3047;42.600;23.470;2022-08-14T12:22:19;6.82;;;6.15;;
6037;SDS011;3047;42.600;23.470;2022-08-14T12:24:59;8.15;;;6.05;;
6037;SDS011;3047;42.600;23.470;2022-08-14T12:27:36;6.72;;;6.13;;
6037;SDS011;3047;42.600;23.470;2022-08-14T12:30:08;7.32;;;6.22;;
6037;SDS011;3047;42.600;23.470;2022-08-14T12:32:41;7.30;;;6.60;;
6037;SDS011;3047;42.600;23.470;2022-08-14T12:35:11;9.73;;;7.93;;
6037;SDS011;3047;42.600;23.470;2022-08-14T12:37:45;7.70;;;6.43;;
6037;SDS011;3047;42.600;23.470;2022-08-14T12:40:14;7.13;;;6.43;;
6037;SDS011;3047;42.600;23.470;2022-08-14T12:42:43;8.73;;;7.07;;
6037;SDS011;3047;42.600;23.470;2022-08-14T12:45:10;8.00;;;7.30;;
6037;SDS011;3047;42.600;23.470;2022-08-14T12:47:38;7.57;;;6.88;;
6037;SDS011;3047;42.600;23.470;2022-08-14T12:50:06;8.27;;;7.47;;
6037;SDS011;3047;42.600;23.470;2022-08-14T12:52:34;7.97;;;7.28;;
6037;SDS011;3047;42.600;23.470;2022-08-14T12:55:04;7.78;;;6.97;;
6037;SDS011;3047;42.600;23.470;2022-08-14T12:57:34;9.07;;;7.10;;
6037;SDS011;3047;42.600;23.470;2022-08-14T13:00:10;9.07;;;7.53;;
6037;SDS011;3047;42.600;23.470;2022-08-14T13:02:40;7.80;;;7.03;;
6037;SDS011;3047;42.600;23.470;2022-08-14T13:05:07;7.57;;;6.90;;
6037;SDS011;3047;42.600;23.470;2022-08-14T13:07:36;7.53;;;6.53;;
6037;SDS011;3047;42.600;23.470;2022-08-14T13:10:05;8.02;;;7.22;;
6037;SDS011;3047;42.600;23.470;2022-08-14T13:12:36;6.60;;;6.10;;
6037;SDS011;3047;42.600;23.470;2022-08-14T13:15:05;7.00;;;6.30;;
6037;SDS011;3047;42.600;23.470;2022-08-14T13:17:35;8.00;;;7.22;;
6037;SDS011;3047;42.600;23.470;2022-08-14T13:20:06;7.55;;;6.88;;
6037;SDS011;3047;42.600;23.470;2022-08-14T13:22:35;8.00;;;7.20;;
6037;SDS011;3047;42.600;23.470;2022-08-14T13:25:04;8.50;;;7.07;;
6037;SDS011;3047;42.600;23.470;2022-08-14T13:27:32;6.93;;;6.32;;
6037;SDS011;3047;42.600;23.470;2022-08-14T13:30:02;7.93;;;6.85;;
6037;SDS011;3047;42.600;23.470;2022-08-14T13:32:31;7.22;;;6.63;;
6037;SDS011;3047;42.600;23.470;2022-08-14T13:35:03;7.18;;;6.55;;
6037;SDS011;3047;42.600;23.470;2022-08-14T13:37:30;7.40;;;6.80;;
6037;SDS011;3047;42.600;23.470;2022-08-14T13:39:57;6.95;;;6.35;;
6037;SDS011;3047;42.600;23.470;2022-08-14T13:42:25;8.93;;;7.55;;
6037;SDS011;3047;42.600;23.470;2022-08-14T13:44:53;7.93;;;6.38;;
6037;SDS011;3047;42.600;23.470;2022-08-14T13:47:23;7.65;;;6.93;;
6037;SDS011;3047;42.600;23.470;2022-08-14T13:49:54;7.28;;;6.57;;
6037;SDS011;3047;42.600;23.470;2022-08-14T13:52:21;7.63;;;6.93;;
6037;SDS011;3047;42.600;23.470;2022-08-14T13:54:50;7.45;;;6.75;;
6037;SDS011;3047;42.600;23.470;2022-08-14T13:57:19;8.35;;;6.85;;
6037;SDS011;3047;42.600;23.470;2022-08-14T13:59:46;10.40;;;7.68;;
6037;SDS011;3047;42.600;23.470;2022-08-14T14:02:15;8.02;;;7.22;;
6037;SDS011;3047;42.600;23.470;2022-08-14T14:04:47;9.35;;;8.52;;
6037;SDS011;3047;42.600;23.470;2022-08-14T14:07:14;8.90;;;7.65;;
6037;SDS011;3047;42.600;23.470;2022-08-14T14:09:42;9.57;;;8.15;;
6037;SDS011;3047;42.600;23.470;2022-08-14T14:12:11;8.73;;;7.43;;
6037;SDS011;3047;42.600;23.470;2022-08-14T14:14:40;10.13;;;8.23;;
6037;SDS011;3047;42.600;23.470;2022-08-14T14:17:08;8.63;;;7.78;;
6037;SDS011;3047;42.600;23.470;2022-08-14T14:19:39;9.15;;;8.25;;
6037;SDS011;3047;42.600;23.470;2022-08-14T14:22:12;8.52;;;7.72;;
6037;SDS011;3047;42.600;23.470;2022-08-14T14:24:41;8.38;;;7.47;;
6037;SDS011;3047;42.600;23.470;2022-08-14T14:27:08;7.97;;;6.85;;
6037;SDS011;3047;42.600;23.470;2022-08-14T14:29:36;8.25;;;7.45;;
6037;SDS011;3047;42.600;23.470;2022-08-14T14:32:04;7.97;;;7.20;;
6037;SDS011;3047;42.600;23.470;2022-08-14T14:34:34;8.00;;;6.93;;
6037;SDS011;3047;42.600;23.470;2022-08-14T14:37:03;8.07;;;7.07;;
6037;SDS011;3047;42.600;23.470;2022-08-14T14:39:32;6.53;;;5.93;;
6037;SDS011;3047;42.600;23.470;2022-08-14T14:41:59;6.28;;;5.78;;
6037;SDS011;3047;42.600;23.470;2022-08-14T14:44:31;8.23;;;5.78;;
6037;SDS011;3047;42.600;23.470;2022-08-14T14:47:00;5.60;;;5.10;;
6037;SDS011;3047;42.600;23.470;2022-08-14T14:49:27;5.80;;;5.30;;
6037;SDS011;3047;42.600;23.470;2022-08-14T14:51:54;5.72;;;5.28;;
6037;SDS011;3047;42.600;23.470;2022-08-14T14:54:21;6.05;;;5.45;;
6037;SDS011;3047;42.600;23.470;2022-08-14T14:56:50;6.40;;;5.80;;
6037;SDS011;3047;42.600;23.470;2022-08-14T14:59:17;6.93;;;5.30;;
6037;SDS011;3047;42.600;23.470;2022-08-14T15:01:47;5.65;;;5.15;;